»·PEaware :: N75382 KRNM-KSAN

N75382 :: KRNM-KSAN

FLIGHT INFORMATION

Flight Status: Arrived
Operator: Privately registered:
United States
More flights under this callsign
Pilot: Dean C. (27429)
Aircraft: CESSNA 206 STATIONAIR
(C206)
More flights by this aircraft type
Origin: KRNM Ramona
United States
Destination: KSAN San Diego Intl-Lindbergh
United States
More flights between these airports :: More routes between these airports
Route: ROBNN V208 OCN V23 MZB V66 RYAHH
File this flight plan on PilotEdge
Remarks: N / A
Altitude:
(Current/Filed)
6,000ft
Speed:
(Current/Filed)
150kts
Departed: 15-Jan-20 03:01 PM
Arrived: 15-Jan-20 03:27 PM
Distance/Time
Traveled:
23nm/0:26
Distance/Time
To Go:
Arrived

Flight Plot

Page will automatically refresh every two minutes.


Map Options




Map Legend


Flown Route
Filed Route
Departure Airport
Arrival Airport
Navaid (VOR, NDB)
Fix

Horizontal Profiles

Position Reports

Time Latitude Longitude Heading Altitude Ground
Speed
15-Jan-20 14:32 33.039293 -116.908028 275 1390ft 0kts
15-Jan-20 14:32 33.039293 -116.908028 275 1390ft 0kts
15-Jan-20 14:34 33.039293 -116.908028 275 1390ft 0kts
15-Jan-20 14:34 33.039293 -116.908028 275 1390ft 0kts
15-Jan-20 14:35 33.039293 -116.908028 275 1390ft 0kts
15-Jan-20 14:37 33.039293 -116.908028 275 1390ft 0kts
15-Jan-20 14:37 33.039293 -116.908028 275 1390ft 0kts
15-Jan-20 14:38 33.039293 -116.908028 275 1390ft 0kts
15-Jan-20 14:40 33.039293 -116.908028 275 1390ft 0kts
15-Jan-20 14:40 33.039293 -116.908028 275 1390ft 0kts
15-Jan-20 14:41 33.039293 -116.908028 275 1390ft 0kts
15-Jan-20 14:42 33.039293 -116.908028 275 1390ft 0kts
15-Jan-20 14:43 33.039293 -116.908028 275 1390ft 0kts
15-Jan-20 14:44 33.039293 -116.908028 275 1390ft 0kts
15-Jan-20 14:45 33.039293 -116.908028 275 1390ft 0kts
15-Jan-20 14:46 33.039293 -116.908028 275 1390ft 0kts
15-Jan-20 14:47 33.039293 -116.908028 275 1390ft 0kts
15-Jan-20 14:48 33.039293 -116.908028 275 1390ft 0kts
15-Jan-20 14:49 33.039293 -116.908028 275 1390ft 0kts
15-Jan-20 14:50 33.039293 -116.908028 275 1390ft 0kts
15-Jan-20 14:51 33.039293 -116.908028 275 1390ft 0kts
15-Jan-20 14:52 33.039293 -116.908028 275 1390ft 0kts
15-Jan-20 14:53 33.039293 -116.908028 275 1390ft 0kts
15-Jan-20 14:54 33.039293 -116.908028 275 1390ft 0kts
15-Jan-20 14:55 33.038816 -116.907975 106 1389ft 5kts
15-Jan-20 14:56 33.038647 -116.907070 231 1389ft 0kts
15-Jan-20 14:57 33.038647 -116.907070 231 1389ft 0kts
15-Jan-20 14:58 33.038501 -116.907465 185 1389ft 0kts
15-Jan-20 14:59 33.038473 -116.907467 182 1389ft 2kts
15-Jan-20 15:00 33.039245 -116.915249 283 1487ft 76kts
15-Jan-20 15:01 33.043214 -116.940646 281 2379ft 81kts
15-Jan-20 15:02 33.054796 -116.963028 303 3292ft 82kts
15-Jan-20 15:03 33.067721 -116.985382 300 4182ft 83kts
15-Jan-20 15:04 33.065845 -117.011692 252 4916ft 95kts
15-Jan-20 15:05 33.056589 -117.044483 251 4926ft 108kts
15-Jan-20 15:06 33.039827 -117.070726 172 4925ft 118kts
15-Jan-20 15:07 33.010639 -117.051625 153 4991ft 120kts
15-Jan-20 15:08 32.981273 -117.031174 153 4990ft 123kts
15-Jan-20 15:09 32.951573 -117.010644 153 4991ft 124kts
15-Jan-20 15:10 32.921651 -116.990003 153 4991ft 124kts
15-Jan-20 15:11 32.890624 -116.968692 153 4993ft 142kts
15-Jan-20 15:12 32.854729 -116.942699 151 4993ft 156kts
15-Jan-20 15:13 32.817705 -116.915641 151 4992ft 156kts
15-Jan-20 15:14 32.780799 -116.888567 151 4991ft 155kts
15-Jan-20 15:15 32.743932 -116.861554 151 4991ft 155kts
15-Jan-20 15:16 32.708667 -116.868907 209 4990ft 133kts
15-Jan-20 15:17 32.683826 -116.897297 246 4939ft 130kts
15-Jan-20 15:18 32.673961 -116.937128 273 4587ft 119kts
15-Jan-20 15:19 32.682045 -116.977786 284 3737ft 126kts
15-Jan-20 15:20 32.690845 -117.013755 284 3524ft 107kts
15-Jan-20 15:21 32.700459 -117.051824 286 2669ft 125kts
15-Jan-20 15:22 32.711389 -117.091075 287 1844ft 125kts
15-Jan-20 15:23 32.719041 -117.130120 286 1035ft 102kts
15-Jan-20 15:24 32.725114 -117.155471 287 547ft 70kts
15-Jan-20 15:25 32.730595 -117.177494 282 81ft 58kts
15-Jan-20 15:26 32.732444 -117.181888 7 15ft 0kts
15-Jan-20 15:27 32.732444 -117.181888 7 15ft 0kts
15-Jan-20 15:28 32.732444 -117.181888 7 15ft 0kts

Navigation Log

Ident Type
Flight plan parsing failed, navigation log unavailable